POV weather

Portage County Airport
Ravenna, Ohio, United States

Public forecast

Using degrees Fahrenheit for public forecast. Weather courtesy of forecast.io.

Current aviation weather report (METAR) for Portage County Airport

Retrieved 2019/10/19 13:38 UTC (19 minutes ago):

KPOV 191338Z AUTO 12003KT 10SM CLR 06/03 A3004 RMK AO2 T00600029 PWINO

Closest aviation forecast (TAF) to Portage County Airport

Closest forecast is Akron Canton Regional Airport, 19.7 nm (36.4 km) SSW. Retrieved 2019/10/19 12:39 UTC (1 hour ago):

TAF KCAK 191135Z 1912/2012 13005KT P6SM FEW170 FEW250